Aeroporto :
LOGIN :

Iscrizione | Disclaimer

   EN    FR    IT 

 










Sommario :    VFR   VFR Marginale   IFR   IFR Intensivo   IFR Molto Intensivo
Visibilità : 
Base nubi : 
>= 8 km
>= 3000ft
5 / 8 km
1000 / 3000 ft
1500m / 5 km
500 / 1000 ft
800 / 1500m
200 / 500 ft
< 800m
< 200 ft
Simboli :   Temporali  Nebbia  Neve Forte  Precipitazioni Forti  Vento > 20 kt
SIGMETs :   Varie  Temporali  Ghiacco  Turbolenza  Onda orograficha  Ceneri Vulcaniche






- Altitudine del aeroporto : 330 ft
- Codice IATA : LVA


LFOV - Laval-Entrammes

ULTIMO METAR :
  • 191700Z AUTO 31008KT 260V340 9999 OVC013 19/17 Q1019

METARs OBSOLETI :
  • 191630Z AUTO 32007KT 290V350 9999 BKN011 BKN018 OVC027 19/17 Q1019
  • 191600Z AUTO 31006KT 290V350 9999 RA SCT010 OVC015 19/18 Q1019
  • 191530Z AUTO 27010KT 9999 BKN015 OVC029 21/19 Q1018
  • 191500Z AUTO 27010KT 9999 BKN014/// BKN052/// BKN110/// ///CB 21/19 Q1018
  • 191430Z AUTO 27011KT 9999 -RA SCT013/// BKN039/// BKN045/// ///TCU 21/19 Q1018

TAF N/A



MetMap, La meteo Aeronautica in un colpo d'occhio ! - Copyright ORBIFLY Dicembre 2007 - Disclaimer

ORBIFLY MET'MAP TEAM :

Programmazione e sviluppo : Alexandra Zaïnal
Concezione : Baudouin d'Aumeries
Supporto tecnico e logistico : Manuel Goepfert
Aiuto : Marc-Olivier Méhu
Aiuto per la traduzione : Arnaldo La Scala




FONTI E CREDITI :

   NOAA